Time;durP1;ratioP1;P1;durP2;ratioP2;P2;SDS_P1;SDS_P2;PMS_P1;PMS_P2;Temp;Humidity;BMP_temperature;BMP_pressure;BME280_temperature;BME280_humidity;BME280_pressure;Samples;Min_cycle;Max_cycle;Signal;HPM_P1;HPM_P2
2024/02/27 00:01:24;;;;;;;11.25;9.05;;;;;;;;;;5020551;28;20635;-82
2024/02/27 00:03:52;;;;;;;11.02;9.90;;;;;;;;;;5024191;28;20210;-83
2024/02/27 00:06:20;;;;;;;7.65;6.85;;;;;;;;;;5028060;28;20227;-83
2024/02/27 00:08:50;;;;;;;7.43;6.72;;;;;;;;;;5019660;28;20217;-82
2024/02/27 00:11:18;;;;;;;7.75;6.95;;;;;;;;;;5013332;28;20206;-82
2024/02/27 00:13:46;;;;;;;13.50;6.90;;;;;;;;;;5020096;28;20205;-82
2024/02/27 00:16:16;;;;;;;11.00;8.10;;;;;;;;;;5005648;28;20202;-83
2024/02/27 00:18:44;;;;;;;7.18;6.47;;;;;;;;;;5020112;28;20212;-83
2024/02/27 00:21:12;;;;;;;10.75;7.38;;;;;;;;;;5021623;28;20688;-83
2024/02/27 00:23:41;;;;;;;11.68;8.82;;;;;;;;;;5023106;28;20214;-83
2024/02/27 00:26:10;;;;;;;8.48;6.93;;;;;;;;;;5016021;28;20216;-83
2024/02/27 00:28:39;;;;;;;11.25;8.35;;;;;;;;;;5016560;28;20226;-83
2024/02/27 00:31:07;;;;;;;7.18;6.47;;;;;;;;;;5026190;28;20279;-83
2024/02/27 00:33:35;;;;;;;10.45;8.48;;;;;;;;;;5009144;28;20791;-83
2024/02/27 00:36:04;;;;;;;12.30;8.43;;;;;;;;;;5025582;28;20210;-83
2024/02/27 00:38:32;;;;;;;9.57;8.57;;;;;;;;;;5024217;28;20208;-83
2024/02/27 00:41:03;;;;;;;10.40;7.75;;;;;;;;;;5023779;28;20202;-82
2024/02/27 00:43:35;;;;;;;9.50;8.40;;;;;;;;;;5015334;28;20208;-82
2024/02/27 00:46:03;;;;;;;11.07;9.50;;;;;;;;;;5000390;28;20205;-82
2024/02/27 00:48:31;;;;;;;11.82;9.23;;;;;;;;;;5008228;28;20296;-83
2024/02/27 00:50:59;;;;;;;11.43;9.02;;;;;;;;;;4987006;28;20668;-82
2024/02/27 00:53:28;;;;;;;11.13;9.63;;;;;;;;;;5026110;28;20213;-82
2024/02/27 00:55:56;;;;;;;10.15;8.13;;;;;;;;;;5016791;28;20205;-82
2024/02/27 00:58:24;;;;;;;10.48;9.30;;;;;;;;;;5023862;28;20212;-82
2024/02/27 01:00:54;;;;;;;12.30;9.75;;;;;;;;;;5024299;28;20209;-82
2024/02/27 01:03:22;;;;;;;12.63;10.40;;;;;;;;;;5015934;28;20216;-83
2024/02/27 01:05:50;;;;;;;12.38;10.10;;;;;;;;;;5023541;28;20209;-83
2024/02/27 01:08:19;;;;;;;12.23;9.57;;;;;;;;;;4998651;28;20228;-83
2024/02/27 01:10:47;;;;;;;10.90;9.80;;;;;;;;;;5018045;28;20212;-83
2024/02/27 01:13:15;;;;;;;14.02;10.50;;;;;;;;;;5021736;28;20245;-83
2024/02/27 01:15:43;;;;;;;14.88;11.68;;;;;;;;;;5010474;28;20201;-83
2024/02/27 01:18:13;;;;;;;13.98;11.80;;;;;;;;;;5014057;28;20201;-82
2024/02/27 01:20:41;;;;;;;18.17;11.85;;;;;;;;;;5021515;28;20205;-82
2024/02/27 01:23:09;;;;;;;18.98;13.48;;;;;;;;;;5006351;28;20263;-82
2024/02/27 01:25:37;;;;;;;16.10;13.07;;;;;;;;;;5005803;28;20225;-83
2024/02/27 01:28:06;;;;;;;17.55;12.30;;;;;;;;;;5026366;28;20229;-83
2024/02/27 01:30:34;;;;;;;19.30;15.15;;;;;;;;;;5003093;28;20221;-83
2024/02/27 01:33:02;;;;;;;15.85;13.80;;;;;;;;;;5030792;28;20205;-83
2024/02/27 01:35:32;;;;;;;20.08;14.05;;;;;;;;;;5015243;28;20623;-82
2024/02/27 01:38:00;;;;;;;19.15;12.90;;;;;;;;;;5014474;28;20208;-83
2024/02/27 01:40:28;;;;;;;22.58;15.85;;;;;;;;;;5019764;28;20224;-83
2024/02/27 01:42:56;;;;;;;27.75;16.88;;;;;;;;;;5024673;28;20212;-83
2024/02/27 01:45:25;;;;;;;24.30;16.88;;;;;;;;;;5015098;28;20207;-83
2024/02/27 01:47:54;;;;;;;26.23;14.82;;;;;;;;;;5016050;28;20706;-82
2024/02/27 01:50:23;;;;;;;23.48;15.50;;;;;;;;;;4993645;28;20680;-82
2024/02/27 01:52:53;;;;;;;18.55;13.40;;;;;;;;;;5024866;28;20216;-83
2024/02/27 01:55:21;;;;;;;16.95;13.10;;;;;;;;;;5014900;28;20667;-82
2024/02/27 01:57:50;;;;;;;17.98;15.00;;;;;;;;;;5019064;28;20652;-83
2024/02/27 02:00:20;;;;;;;18.88;14.45;;;;;;;;;;5029330;28;20209;-83
2024/02/27 02:02:48;;;;;;;19.92;15.18;;;;;;;;;;5017539;28;20205;-82
2024/02/27 02:05:17;;;;;;;23.45;15.63;;;;;;;;;;5014970;28;20210;-82
2024/02/27 02:07:45;;;;;;;20.98;14.90;;;;;;;;;;5020164;28;20239;-82
2024/02/27 02:10:15;;;;;;;21.90;16.70;;;;;;;;;;5029011;28;20664;-83
2024/02/27 02:12:43;;;;;;;19.30;14.57;;;;;;;;;;5023122;28;20233;-83
2024/02/27 02:15:11;;;;;;;26.80;14.48;;;;;;;;;;5013151;28;20210;-81
2024/02/27 02:17:43;;;;;;;22.23;16.83;;;;;;;;;;5026038;28;20221;-83
2024/02/27 02:20:16;;;;;;;23.85;16.08;;;;;;;;;;5015468;28;20201;-82
2024/02/27 02:22:44;;;;;;;22.75;16.70;;;;;;;;;;5022997;28;20195;-82
2024/02/27 02:25:13;;;;;;;20.92;15.50;;;;;;;;;;5021279;28;20679;-82
2024/02/27 02:27:43;;;;;;;23.77;17.30;;;;;;;;;;5018936;28;20228;-83
2024/02/27 02:30:12;;;;;;;21.48;15.20;;;;;;;;;;5026740;28;20209;-83
2024/02/27 02:32:47;;;;;;;21.98;17.00;;;;;;;;;;5015744;28;20209;-83
2024/02/27 02:35:17;;;;;;;24.08;18.75;;;;;;;;;;5025636;28;20200;-84
2024/02/27 02:37:47;;;;;;;29.98;18.85;;;;;;;;;;5012087;28;20665;-83
2024/02/27 02:40:16;;;;;;;24.33;18.13;;;;;;;;;;5020867;28;20227;-83
2024/02/27 02:42:44;;;;;;;24.83;17.60;;;;;;;;;;5008114;28;20255;-83
2024/02/27 02:45:13;;;;;;;24.83;19.48;;;;;;;;;;5016471;28;20734;-83
2024/02/27 02:47:41;;;;;;;25.35;18.70;;;;;;;;;;5005517;28;20205;-83
2024/02/27 02:50:10;;;;;;;27.42;20.38;;;;;;;;;;5026219;28;20213;-83
2024/02/27 02:52:41;;;;;;;26.95;18.98;;;;;;;;;;5012132;28;20268;-83
2024/02/27 02:55:09;;;;;;;27.58;20.52;;;;;;;;;;5015096;28;20210;-83
2024/02/27 02:57:38;;;;;;;34.40;21.38;;;;;;;;;;5014754;28;20232;-83
2024/02/27 03:00:07;;;;;;;28.83;21.88;;;;;;;;;;5020956;28;20205;-83
2024/02/27 03:02:36;;;;;;;31.60;21.77;;;;;;;;;;5013442;28;20205;-83
2024/02/27 03:05:05;;;;;;;34.83;23.08;;;;;;;;;;5008739;28;20212;-83
2024/02/27 03:07:33;;;;;;;27.55;21.00;;;;;;;;;;5018722;28;20205;-83
2024/02/27 03:10:03;;;;;;;40.22;24.63;;;;;;;;;;4997585;28;20720;-83
2024/02/27 03:12:32;;;;;;;34.90;21.63;;;;;;;;;;5015786;28;20234;-83
2024/02/27 03:15:01;;;;;;;31.55;21.55;;;;;;;;;;4997942;28;20677;-83
2024/02/27 03:17:29;;;;;;;40.60;24.95;;;;;;;;;;4996594;28;20217;-83
2024/02/27 03:19:57;;;;;;;32.33;24.40;;;;;;;;;;5001617;28;20198;-83
2024/02/27 03:22:25;;;;;;;36.97;24.83;;;;;;;;;;5023975;28;20205;-83
2024/02/27 03:24:54;;;;;;;33.83;24.52;;;;;;;;;;5001255;28;20239;-83
2024/02/27 03:27:24;;;;;;;36.47;24.83;;;;;;;;;;4997191;28;20198;-84
2024/02/27 03:29:52;;;;;;;34.80;24.77;;;;;;;;;;5013052;28;20217;-83
2024/02/27 03:32:21;;;;;;;34.60;25.73;;;;;;;;;;5015685;28;20208;-83
2024/02/27 03:34:49;;;;;;;30.98;22.33;;;;;;;;;;5012445;28;20197;-83
2024/02/27 03:37:18;;;;;;;35.60;24.50;;;;;;;;;;5000755;28;20214;-83
2024/02/27 03:39:46;;;;;;;35.88;23.70;;;;;;;;;;5019212;28;20201;-83
2024/02/27 03:42:15;;;;;;;35.17;23.00;;;;;;;;;;4983909;28;20198;-82
2024/02/27 03:44:46;;;;;;;39.97;26.75;;;;;;;;;;5016319;28;20584;-82
2024/02/27 03:47:15;;;;;;;36.55;24.05;;;;;;;;;;5006934;28;20197;-82
2024/02/27 03:49:43;;;;;;;43.88;26.45;;;;;;;;;;5017069;28;20703;-82
2024/02/27 03:52:11;;;;;;;39.40;25.75;;;;;;;;;;5012457;28;20648;-81
2024/02/27 03:54:40;;;;;;;38.33;26.10;;;;;;;;;;5007492;28;20201;-82
2024/02/27 03:57:09;;;;;;;38.22;24.73;;;;;;;;;;5023505;28;20206;-81
2024/02/27 03:59:38;;;;;;;34.05;23.98;;;;;;;;;;5016291;28;20205;-83
2024/02/27 04:02:08;;;;;;;43.75;26.45;;;;;;;;;;5023388;28;20206;-82
2024/02/27 04:04:36;;;;;;;39.38;24.90;;;;;;;;;;5022943;28;20201;-83
2024/02/27 04:07:05;;;;;;;36.38;26.20;;;;;;;;;;5029463;28;20217;-83
2024/02/27 04:09:33;;;;;;;36.75;24.67;;;;;;;;;;5004015;28;20576;-82
2024/02/27 04:12:02;;;;;;;39.30;25.42;;;;;;;;;;5019532;28;20888;-82
2024/02/27 04:14:30;;;;;;;35.80;26.00;;;;;;;;;;5017689;28;20209;-82
2024/02/27 04:16:59;;;;;;;38.70;25.27;;;;;;;;;;5001661;28;20206;-83
2024/02/27 04:19:34;;;;;;;37.92;27.42;;;;;;;;;;5029105;28;20575;-83
2024/02/27 04:22:02;;;;;;;37.00;26.33;;;;;;;;;;5003029;28;20201;-83
2024/02/27 04:24:31;;;;;;;42.92;25.40;;;;;;;;;;5026512;28;20572;-84
2024/02/27 04:27:00;;;;;;;41.70;25.60;;;;;;;;;;4998813;28;20200;-84
2024/02/27 04:29:29;;;;;;;40.58;26.70;;;;;;;;;;5009581;28;20217;-83
2024/02/27 04:31:58;;;;;;;35.70;23.42;;;;;;;;;;5025148;28;20677;-84
2024/02/27 04:34:29;;;;;;;40.55;27.70;;;;;;;;;;5004350;28;20201;-84
2024/02/27 04:36:59;;;;;;;36.55;26.08;;;;;;;;;;5005574;28;20202;-84
2024/02/27 04:39:28;;;;;;;38.00;26.40;;;;;;;;;;5022052;28;20198;-84
2024/02/27 04:42:00;;;;;;;41.85;24.55;;;;;;;;;;5023436;28;20194;-83
2024/02/27 04:44:28;;;;;;;41.55;27.55;;;;;;;;;;5013184;28;20236;-84
2024/02/27 04:46:56;;;;;;;36.03;26.50;;;;;;;;;;5017115;28;20209;-82
2024/02/27 04:49:25;;;;;;;37.35;27.13;;;;;;;;;;5021762;28;20240;-83
2024/02/27 04:51:53;;;;;;;37.60;26.10;;;;;;;;;;5001635;28;20212;-81
2024/02/27 04:54:23;;;;;;;40.03;27.90;;;;;;;;;;5014988;28;20209;-83
2024/02/27 04:56:51;;;;;;;41.00;26.60;;;;;;;;;;5022836;28;20212;-82
2024/02/27 04:59:20;;;;;;;36.55;24.92;;;;;;;;;;5002717;28;20673;-83
2024/02/27 05:01:48;;;;;;;38.80;27.65;;;;;;;;;;5021939;28;20208;-82
2024/02/27 05:04:18;;;;;;;33.70;23.40;;;;;;;;;;5003541;28;20209;-83
2024/02/27 05:06:46;;;;;;;35.88;24.98;;;;;;;;;;5011849;28;20202;-83
2024/02/27 05:09:15;;;;;;;45.17;28.73;;;;;;;;;;5023326;28;20220;-83
2024/02/27 05:11:45;;;;;;;42.53;29.42;;;;;;;;;;4994530;28;20260;-82
2024/02/27 05:14:13;;;;;;;36.05;25.48;;;;;;;;;;5020118;28;20206;-82
2024/02/27 05:16:41;;;;;;;41.97;28.40;;;;;;;;;;5024634;28;20216;-82
2024/02/27 05:19:10;;;;;;;40.00;24.58;;;;;;;;;;5025320;28;20582;-82
2024/02/27 05:21:38;;;;;;;38.58;28.20;;;;;;;;;;5021512;28;20205;-83
2024/02/27 05:24:07;;;;;;;33.97;24.35;;;;;;;;;;5024089;28;20255;-84
2024/02/27 05:26:37;;;;;;;36.90;24.80;;;;;;;;;;5006480;28;20212;-81
2024/02/27 05:29:07;;;;;;;38.03;25.23;;;;;;;;;;5014098;28;20290;-83
2024/02/27 05:31:37;;;;;;;40.92;26.60;;;;;;;;;;5014570;28;20209;-83
2024/02/27 05:34:05;;;;;;;39.15;27.40;;;;;;;;;;5015977;28;20679;-83
2024/02/27 05:36:34;;;;;;;39.72;27.25;;;;;;;;;;5014226;28;20205;-83
2024/02/27 05:39:02;;;;;;;38.30;27.08;;;;;;;;;;5023188;28;20692;-83
2024/02/27 05:41:30;;;;;;;37.50;25.08;;;;;;;;;;5012750;28;20270;-83
2024/02/27 05:43:59;;;;;;;39.03;28.60;;;;;;;;;;5026564;28;20306;-82
2024/02/27 05:46:28;;;;;;;36.38;25.00;;;;;;;;;;5007904;28;20818;-83
2024/02/27 05:48:58;;;;;;;35.90;25.70;;;;;;;;;;5025126;28;20687;-83
2024/02/27 05:51:26;;;;;;;36.58;25.55;;;;;;;;;;5018103;28;20206;-82
2024/02/27 05:53:56;;;;;;;42.80;24.95;;;;;;;;;;5014000;28;20213;-83
2024/02/27 05:56:24;;;;;;;32.33;23.48;;;;;;;;;;5014263;28;20210;-83
2024/02/27 05:58:53;;;;;;;39.22;26.85;;;;;;;;;;5014612;28;20201;-83
2024/02/27 06:01:21;;;;;;;41.90;27.58;;;;;;;;;;5013364;28;20202;-83
2024/02/27 06:03:51;;;;;;;38.55;26.73;;;;;;;;;;5018200;28;20640;-83
2024/02/27 06:06:19;;;;;;;40.45;26.92;;;;;;;;;;5017179;28;20632;-83
2024/02/27 06:08:48;;;;;;;36.25;26.00;;;;;;;;;;5029433;28;20205;-82
2024/02/27 06:11:16;;;;;;;35.88;26.52;;;;;;;;;;4996226;28;20210;-82
2024/02/27 06:13:47;;;;;;;36.65;24.60;;;;;;;;;;5012932;28;20213;-83
2024/02/27 06:16:15;;;;;;;37.67;25.52;;;;;;;;;;5026276;28;20190;-83
2024/02/27 06:18:47;;;;;;;42.42;27.33;;;;;;;;;;5019229;28;20216;-82
2024/02/27 06:24:02;;;;;;;36.95;26.73;;;;;;;;;;5000279;28;20235;-88
2024/02/27 06:26:31;;;;;;;37.33;26.92;;;;;;;;;;5013829;28;20206;-84
2024/02/27 06:28:59;;;;;;;36.78;26.80;;;;;;;;;;5012404;28;20207;-84
2024/02/27 06:31:27;;;;;;;34.90;25.88;;;;;;;;;;5007441;28;20224;-81
2024/02/27 06:33:56;;;;;;;41.60;29.73;;;;;;;;;;5016195;28;20209;-83
2024/02/27 06:36:25;;;;;;;44.72;29.05;;;;;;;;;;5014243;28;20206;-85
2024/02/27 06:38:56;;;;;;;46.67;28.30;;;;;;;;;;5021859;28;20206;-82
2024/02/27 06:41:24;;;;;;;39.65;25.60;;;;;;;;;;5019991;28;20236;-84
2024/02/27 06:43:53;;;;;;;37.05;24.88;;;;;;;;;;5012169;28;20201;-84
2024/02/27 06:46:21;;;;;;;34.83;25.48;;;;;;;;;;5008717;28;20672;-85
2024/02/27 06:48:50;;;;;;;33.95;24.83;;;;;;;;;;5021337;28;20239;-86
2024/02/27 06:51:18;;;;;;;32.55;23.20;;;;;;;;;;4996662;28;20218;-79
2024/02/27 06:53:48;;;;;;;40.40;25.80;;;;;;;;;;5016876;28;20198;-83
2024/02/27 06:56:16;;;;;;;32.15;23.10;;;;;;;;;;5013737;28;20198;-83
2024/02/27 06:58:46;;;;;;;38.10;26.52;;;;;;;;;;5014340;28;20198;-84
2024/02/27 07:01:14;;;;;;;36.80;26.45;;;;;;;;;;5001437;28;20228;-84
2024/02/27 07:03:43;;;;;;;32.75;24.27;;;;;;;;;;5018158;28;20263;-82
2024/02/27 07:06:11;;;;;;;41.28;26.45;;;;;;;;;;5005737;28;20220;-81
2024/02/27 07:08:40;;;;;;;35.65;23.70;;;;;;;;;;5017831;28;20776;-80
2024/02/27 07:11:09;;;;;;;36.10;22.88;;;;;;;;;;5026799;28;20281;-83
2024/02/27 07:13:38;;;;;;;33.67;23.00;;;;;;;;;;5016148;28;20676;-81
2024/02/27 07:16:07;;;;;;;35.15;24.00;;;;;;;;;;5018966;28;20653;-83
2024/02/27 07:18:38;;;;;;;30.33;23.23;;;;;;;;;;5017775;28;20209;-82
2024/02/27 07:21:06;;;;;;;33.03;23.75;;;;;;;;;;5020835;28;20253;-83
2024/02/27 07:23:34;;;;;;;36.42;25.58;;;;;;;;;;5019531;28;20813;-83
2024/02/27 07:26:02;;;;;;;30.58;22.05;;;;;;;;;;5017713;28;20687;-83
2024/02/27 07:28:33;;;;;;;34.38;24.50;;;;;;;;;;5019214;28;20213;-82
2024/02/27 07:31:01;;;;;;;37.15;25.48;;;;;;;;;;5015670;28;20252;-81
2024/02/27 07:33:28;;;;;;;33.60;21.27;;;;;;;;;;5015863;28;20255;-81
2024/02/27 07:35:56;;;;;;;33.58;23.23;;;;;;;;;;5021064;28;20194;-81
2024/02/27 07:38:25;;;;;;;31.90;22.30;;;;;;;;;;4993203;28;20204;-83
2024/02/27 07:40:54;;;;;;;31.38;22.42;;;;;;;;;;5014093;28;20260;-81
2024/02/27 07:43:22;;;;;;;35.92;23.63;;;;;;;;;;5014353;28;20210;-82
2024/02/27 07:45:53;;;;;;;32.80;24.48;;;;;;;;;;5011841;28;20597;-83
2024/02/27 07:48:22;;;;;;;37.47;24.00;;;;;;;;;;5015275;28;20287;-81
2024/02/27 07:50:54;;;;;;;29.42;22.70;;;;;;;;;;5018545;28;20217;-82
2024/02/27 07:53:22;;;;;;;32.30;22.90;;;;;;;;;;5015650;28;20915;-82
2024/02/27 07:55:50;;;;;;;30.90;21.48;;;;;;;;;;5016784;28;20251;-83
2024/02/27 07:58:19;;;;;;;30.30;22.05;;;;;;;;;;5014570;28;20190;-82
2024/02/27 08:00:47;;;;;;;33.15;24.27;;;;;;;;;;5013602;28;20248;-82
2024/02/27 08:03:16;;;;;;;34.08;24.63;;;;;;;;;;5000432;28;20202;-84
2024/02/27 08:05:44;;;;;;;34.03;23.45;;;;;;;;;;5015529;28;20202;-83
2024/02/27 08:08:15;;;;;;;30.92;22.92;;;;;;;;;;5011938;28;20198;-83
2024/02/27 08:10:43;;;;;;;33.85;22.13;;;;;;;;;;5017184;28;20600;-83
2024/02/27 08:13:11;;;;;;;35.03;23.08;;;;;;;;;;5015605;28;20229;-83
2024/02/27 08:15:39;;;;;;;35.55;24.38;;;;;;;;;;5014687;28;20214;-82
2024/02/27 08:18:08;;;;;;;29.90;21.45;;;;;;;;;;5013686;28;20210;-84
2024/02/27 08:20:37;;;;;;;33.88;22.60;;;;;;;;;;5002843;28;20688;-85
2024/02/27 08:23:08;;;;;;;29.10;20.45;;;;;;;;;;5020329;28;20682;-84
2024/02/27 08:25:36;;;;;;;29.80;20.42;;;;;;;;;;5019117;28;20210;-84
2024/02/27 08:28:05;;;;;;;29.23;22.25;;;;;;;;;;5013801;28;20582;-80
2024/02/27 08:30:33;;;;;;;31.17;22.73;;;;;;;;;;5016126;28;20233;-81
2024/02/27 08:33:03;;;;;;;28.70;23.17;;;;;;;;;;5013872;28;20198;-79
2024/02/27 08:35:31;;;;;;;39.00;27.85;;;;;;;;;;5016478;28;20650;-80
2024/02/27 08:38:01;;;;;;;30.30;21.58;;;;;;;;;;4994746;28;20287;-81
2024/02/27 08:40:31;;;;;;;32.72;23.23;;;;;;;;;;5020780;28;20202;-79
2024/02/27 08:42:59;;;;;;;34.65;22.73;;;;;;;;;;5020642;28;20211;-81
2024/02/27 08:45:27;;;;;;;28.45;21.70;;;;;;;;;;5020600;28;20205;-81
2024/02/27 08:47:56;;;;;;;29.35;22.05;;;;;;;;;;5018793;28;20592;-82
2024/02/27 08:50:25;;;;;;;36.33;24.23;;;;;;;;;;5020175;28;20673;-81
2024/02/27 08:52:53;;;;;;;27.65;20.40;;;;;;;;;;5003726;28;20210;-82
2024/02/27 08:55:24;;;;;;;30.85;20.90;;;;;;;;;;5000998;28;20256;-81
2024/02/27 08:57:53;;;;;;;28.67;20.40;;;;;;;;;;5019109;28;20205;-81
2024/02/27 09:00:21;;;;;;;29.15;22.40;;;;;;;;;;5018618;28;20669;-81
2024/02/27 09:02:49;;;;;;;29.40;20.20;;;;;;;;;;5006672;28;20686;-81
2024/02/27 09:05:18;;;;;;;29.00;21.88;;;;;;;;;;5018057;28;20259;-81
2024/02/27 09:07:46;;;;;;;32.25;21.45;;;;;;;;;;5018516;28;20746;-81
2024/02/27 09:10:15;;;;;;;29.25;20.15;;;;;;;;;;5017775;28;20260;-80
2024/02/27 09:12:44;;;;;;;30.35;22.65;;;;;;;;;;5016090;28;20233;-80
2024/02/27 09:15:12;;;;;;;28.75;21.00;;;;;;;;;;5018823;28;20213;-80
2024/02/27 09:17:41;;;;;;;28.85;21.55;;;;;;;;;;5016699;28;20212;-81
2024/02/27 09:20:09;;;;;;;28.60;20.70;;;;;;;;;;5017289;28;20208;-80
2024/02/27 09:22:38;;;;;;;30.42;21.42;;;;;;;;;;4997865;28;20734;-80
2024/02/27 09:25:07;;;;;;;27.73;18.63;;;;;;;;;;5007454;28;20198;-81
2024/02/27 09:27:35;;;;;;;28.83;18.70;;;;;;;;;;5011704;28;20205;-80
2024/02/27 09:30:06;;;;;;;28.92;20.63;;;;;;;;;;5016029;28;20213;-81
2024/02/27 09:32:34;;;;;;;26.42;20.75;;;;;;;;;;5021715;28;20286;-80
2024/02/27 09:35:02;;;;;;;26.77;20.00;;;;;;;;;;5018448;28;20209;-81
2024/02/27 09:37:31;;;;;;;29.35;21.45;;;;;;;;;;5020137;28;20201;-80
2024/02/27 09:39:59;;;;;;;26.20;19.77;;;;;;;;;;5000737;28;20668;-82
2024/02/27 09:42:30;;;;;;;25.33;20.45;;;;;;;;;;5023508;28;20786;-82
2024/02/27 09:44:59;;;;;;;23.20;19.15;;;;;;;;;;5004325;28;20189;-81
2024/02/27 09:47:31;;;;;;;27.60;19.40;;;;;;;;;;5016698;28;20205;-81
2024/02/27 09:50:00;;;;;;;23.70;19.58;;;;;;;;;;5001933;28;20201;-81
2024/02/27 09:52:29;;;;;;;22.75;18.08;;;;;;;;;;5020707;28;20225;-82
2024/02/27 09:54:58;;;;;;;30.52;20.52;;;;;;;;;;5018170;28;20660;-81
2024/02/27 09:57:28;;;;;;;20.80;17.88;;;;;;;;;;5015760;28;20217;-80
2024/02/27 09:59:56;;;;;;;28.77;18.75;;;;;;;;;;5017284;28;20259;-80
2024/02/27 10:02:24;;;;;;;25.15;19.10;;;;;;;;;;5018106;28;20209;-81
2024/02/27 10:04:55;;;;;;;20.83;17.65;;;;;;;;;;5027825;28;20262;-80
2024/02/27 10:07:23;;;;;;;25.90;19.50;;;;;;;;;;5019012;28;20205;-85
2024/02/27 10:09:53;;;;;;;25.90;20.55;;;;;;;;;;5011598;28;20206;-81
2024/02/27 10:12:22;;;;;;;24.98;19.80;;;;;;;;;;5015351;28;20260;-81
2024/02/27 10:14:50;;;;;;;24.05;18.15;;;;;;;;;;5020099;28;20206;-81
2024/02/27 10:17:19;;;;;;;27.63;19.02;;;;;;;;;;5018354;28;20208;-81
2024/02/27 10:19:47;;;;;;;24.75;18.23;;;;;;;;;;5012112;28;20212;-83
2024/02/27 10:22:17;;;;;;;26.67;19.42;;;;;;;;;;5008341;28;20200;-82
2024/02/27 10:24:48;;;;;;;23.00;18.58;;;;;;;;;;5017795;28;20213;-82
2024/02/27 10:27:16;;;;;;;25.00;18.55;;;;;;;;;;5015943;28;20271;-82
2024/02/27 10:29:45;;;;;;;25.40;18.30;;;;;;;;;;5018013;28;20213;-82
2024/02/27 10:32:13;;;;;;;22.42;18.77;;;;;;;;;;5018896;28;20629;-82
2024/02/27 10:34:54;;;;;;;28.45;19.33;;;;;;;;;;5014095;28;20216;-84
2024/02/27 10:37:24;;;;;;;22.73;18.00;;;;;;;;;;5020768;28;20712;-82
2024/02/27 10:39:52;;;;;;;22.45;18.23;;;;;;;;;;5016142;28;20213;-84
2024/02/27 10:42:21;;;;;;;25.63;19.27;;;;;;;;;;5014876;28;20672;-84
2024/02/27 10:44:50;;;;;;;23.75;18.95;;;;;;;;;;4999227;28;20205;-83
2024/02/27 10:47:20;;;;;;;24.15;18.90;;;;;;;;;;5016018;28;20205;-85
2024/02/27 10:49:49;;;;;;;23.40;19.73;;;;;;;;;;4981790;28;20298;-85
2024/02/27 10:52:26;;;;;;;21.77;19.38;;;;;;;;;;5003535;28;20221;-85
2024/02/27 10:54:57;;;;;;;20.50;18.27;;;;;;;;;;5004595;28;20216;-87
2024/02/27 10:57:26;;;;;;;22.25;18.00;;;;;;;;;;5015819;28;20213;-85
2024/02/27 10:59:54;;;;;;;22.95;18.13;;;;;;;;;;4998451;28;20206;-85
2024/02/27 11:02:22;;;;;;;22.75;18.48;;;;;;;;;;5003688;28;20206;-86
2024/02/27 11:04:52;;;;;;;23.45;17.70;;;;;;;;;;5010916;28;20291;-82
2024/02/27 11:07:21;;;;;;;23.90;19.33;;;;;;;;;;5016049;28;20208;-83
2024/02/27 11:09:55;;;;;;;25.13;17.95;;;;;;;;;;5014505;28;20237;-84
2024/02/27 11:12:31;;;;;;;23.08;17.65;;;;;;;;;;5017566;28;20268;-81
2024/02/27 11:15:03;;;;;;;27.10;18.75;;;;;;;;;;5015758;28;20206;-81
2024/02/27 11:17:34;;;;;;;23.00;19.10;;;;;;;;;;5020294;28;20370;-82
2024/02/27 11:20:06;;;;;;;24.85;19.35;;;;;;;;;;5014373;28;20202;-82
2024/02/27 11:22:34;;;;;;;22.92;19.40;;;;;;;;;;5014571;28;20201;-86
2024/02/27 11:25:07;;;;;;;21.42;18.98;;;;;;;;;;5003199;28;20198;-82
2024/02/27 11:27:37;;;;;;;27.40;20.17;;;;;;;;;;5019536;28;20220;-82
2024/02/27 11:30:06;;;;;;;22.05;19.23;;;;;;;;;;4999269;28;20221;-82
2024/02/27 11:32:36;;;;;;;23.47;18.67;;;;;;;;;;5009809;28;20214;-83
2024/02/27 11:35:06;;;;;;;25.23;20.77;;;;;;;;;;5022954;28;21061;-84
2024/02/27 11:37:36;;;;;;;22.27;19.30;;;;;;;;;;5004573;28;20633;-83
2024/02/27 11:40:06;;;;;;;22.53;20.13;;;;;;;;;;5022015;28;20639;-83
2024/02/27 11:42:38;;;;;;;23.20;20.50;;;;;;;;;;5020222;28;20595;-85
2024/02/27 11:45:10;;;;;;;24.50;21.37;;;;;;;;;;5000985;28;20599;-85
2024/02/27 11:47:41;;;;;;;26.80;22.10;;;;;;;;;;5012857;28;20679;-83
2024/02/27 11:50:12;;;;;;;25.57;22.80;;;;;;;;;;5021115;28;20601;-82
2024/02/27 11:52:44;;;;;;;24.17;20.90;;;;;;;;;;4982231;28;21279;-84
2024/02/27 11:55:13;;;;;;;26.30;22.67;;;;;;;;;;5017175;28;21118;-85
2024/02/27 11:57:41;;;;;;;24.83;22.13;;;;;;;;;;5029981;28;20718;-91
2024/02/27 12:00:14;;;;;;;26.77;22.70;;;;;;;;;;5029964;28;21238;-88
2024/02/27 12:02:45;;;;;;;24.27;21.67;;;;;;;;;;4998642;28;21284;-89
2024/02/27 12:05:16;;;;;;;24.40;21.23;;;;;;;;;;5000069;28;20628;-85
2024/02/27 12:07:47;;;;;;;23.73;20.87;;;;;;;;;;5020063;28;20656;-86
2024/02/27 12:10:16;;;;;;;25.37;21.53;;;;;;;;;;5013318;28;20782;-88
2024/02/27 12:12:45;;;;;;;26.30;21.90;;;;;;;;;;5001586;28;20651;-84
2024/02/27 12:15:16;;;;;;;22.57;20.20;;;;;;;;;;5022053;28;21164;-83
2024/02/27 12:17:45;;;;;;;24.67;21.33;;;;;;;;;;5019104;28;20694;-83
2024/02/27 12:20:14;;;;;;;22.33;19.30;;;;;;;;;;5011958;28;20595;-85
2024/02/27 12:22:44;;;;;;;23.23;19.77;;;;;;;;;;5017752;28;21220;-84
2024/02/27 12:25:15;;;;;;;21.93;19.13;;;;;;;;;;5013966;28;20643;-85
2024/02/27 12:27:46;;;;;;;26.97;20.53;;;;;;;;;;5021770;28;20672;-84
2024/02/27 12:30:16;;;;;;;22.80;19.60;;;;;;;;;;4986554;28;20616;-86
2024/02/27 12:32:45;;;;;;;21.53;19.20;;;;;;;;;;4995629;28;21276;-88
2024/02/27 12:35:14;;;;;;;25.77;22.07;;;;;;;;;;5016479;28;20720;-85
2024/02/27 12:37:43;;;;;;;22.20;19.97;;;;;;;;;;5015146;28;20653;-86
2024/02/27 12:40:13;;;;;;;20.83;18.63;;;;;;;;;;5017830;28;20619;-86
2024/02/27 12:42:42;;;;;;;22.73;18.90;;;;;;;;;;5014949;28;20625;-85
2024/02/27 12:45:11;;;;;;;22.20;18.90;;;;;;;;;;4997488;28;20676;-85
2024/02/27 12:47:44;;;;;;;19.93;17.93;;;;;;;;;;5010963;28;20628;-86
2024/02/27 12:50:19;;;;;;;21.13;18.90;;;;;;;;;;5015011;28;20727;-86
2024/02/27 12:52:49;;;;;;;23.90;21.40;;;;;;;;;;5011781;28;21281;-84
2024/02/27 12:55:17;;;;;;;23.00;19.40;;;;;;;;;;5016382;28;20635;-84
2024/02/27 12:57:51;;;;;;;23.90;20.30;;;;;;;;;;5015035;28;20643;-86
2024/02/27 13:00:19;;;;;;;22.57;20.00;;;;;;;;;;5018069;28;20678;-82
2024/02/27 13:02:53;;;;;;;23.87;20.70;;;;;;;;;;5019284;28;21147;-83
2024/02/27 13:05:22;;;;;;;19.63;17.53;;;;;;;;;;5017337;28;20628;-80
2024/02/27 13:07:51;;;;;;;22.00;19.70;;;;;;;;;;5014944;28;20632;-81
2024/02/27 13:10:20;;;;;;;23.77;21.37;;;;;;;;;;5022455;28;20728;-81
2024/02/27 13:12:49;;;;;;;20.87;18.73;;;;;;;;;;5000175;28;21095;-81
2024/02/27 13:15:20;;;;;;;24.10;21.60;;;;;;;;;;5007597;28;20617;-82
2024/02/27 13:17:51;;;;;;;21.73;19.43;;;;;;;;;;4997171;28;20683;-82
2024/02/27 13:20:20;;;;;;;21.80;19.50;;;;;;;;;;4996490;28;20612;-81
2024/02/27 13:22:49;;;;;;;20.47;18.33;;;;;;;;;;5020936;28;21227;-83
2024/02/27 13:25:17;;;;;;;21.13;19.13;;;;;;;;;;5022138;28;20628;-82
2024/02/27 13:27:46;;;;;;;22.10;19.80;;;;;;;;;;5016947;28;20627;-82
2024/02/27 13:30:15;;;;;;;22.03;19.70;;;;;;;;;;5012502;28;20620;-82
2024/02/27 13:32:43;;;;;;;20.33;18.33;;;;;;;;;;4998271;28;20679;-82
2024/02/27 13:35:12;;;;;;;23.70;21.40;;;;;;;;;;5024667;28;20610;-84
2024/02/27 13:37:41;;;;;;;25.70;23.10;;;;;;;;;;5025949;28;21216;-83
2024/02/27 13:40:10;;;;;;;22.97;20.77;;;;;;;;;;5015643;28;21273;-84
2024/02/27 13:42:41;;;;;;;22.63;20.53;;;;;;;;;;5016817;28;20617;-86
2024/02/27 13:45:10;;;;;;;23.03;20.70;;;;;;;;;;5017869;28;20629;-79
2024/02/27 13:47:38;;;;;;;21.60;19.30;;;;;;;;;;5017010;28;20621;-81
2024/02/27 13:50:07;;;;;;;23.03;20.73;;;;;;;;;;5015002;28;20678;-80
2024/02/27 13:52:36;;;;;;;23.87;21.53;;;;;;;;;;5014585;28;20632;-80
2024/02/27 13:55:07;;;;;;;22.90;20.63;;;;;;;;;;5024703;28;20617;-81
2024/02/27 13:57:35;;;;;;;23.03;20.80;;;;;;;;;;5016359;28;20605;-84
2024/02/27 14:00:03;;;;;;;24.03;21.57;;;;;;;;;;5028203;28;20616;-82
2024/02/27 14:02:40;;;;;;;23.10;20.80;;;;;;;;;;5014857;28;20674;-84
2024/02/27 14:05:08;;;;;;;22.23;19.83;;;;;;;;;;5021278;28;20625;-84
2024/02/27 14:07:37;;;;;;;22.47;20.33;;;;;;;;;;5023949;28;20618;-84
2024/02/27 14:10:07;;;;;;;22.67;20.37;;;;;;;;;;5013929;28;21188;-84
2024/02/27 14:12:35;;;;;;;22.40;19.90;;;;;;;;;;5016047;28;20661;-83
2024/02/27 14:15:03;;;;;;;20.97;19.07;;;;;;;;;;5019708;28;20656;-83
2024/02/27 14:17:32;;;;;;;26.33;21.93;;;;;;;;;;5000329;28;20618;-84
2024/02/27 14:20:00;;;;;;;22.20;20.30;;;;;;;;;;5024430;28;20659;-86
2024/02/27 14:22:28;;;;;;;26.33;23.60;;;;;;;;;;5023340;28;20635;-82
2024/02/27 14:24:57;;;;;;;23.00;20.93;;;;;;;;;;5017100;28;20620;-82
2024/02/27 14:27:26;;;;;;;23.37;21.47;;;;;;;;;;5019518;28;20627;-83
2024/02/27 14:29:54;;;;;;;23.00;20.83;;;;;;;;;;5017215;28;20635;-83
2024/02/27 14:32:23;;;;;;;23.00;21.00;;;;;;;;;;5017175;28;20616;-84